Flight Track Log - Related Links

Times and Time Zones

All times are in EDT time to prevent confusion due to time zone crossing. See the ASQ5941 flight status page for this flight to view local times or setup timezone preferences in your user account.

Time Position Orientation Groundspeed Altitude Reporting Facility
EDT Latitude Longitude Course Direction KTS MPH feet Rate Location/Type
Tue 05:08:51 PM 41.3544 -75.8481 341° North 186 214 6,300  Level New York Center
Tue 05:09:51 PM 41.4219 -75.8781 342° North 216 249 8,600 1,900 Climbing New York Center
Tue 05:10:00 PM 41.3961 -76.2769 307° West  Level Estimated
Tue 05:10:51 PM 41.4914 -75.9111 340° North 244 281 10,100  Level New York Center
Tue 05:11:00 PM 41.4073 -76.3877 289° West  Level Estimated
Tue 05:11:51 PM 41.5792 -75.9539 340° North 293 337 11,000  Level New York Center
Tue 05:12:00 PM 41.4184 -76.4986 291° West  Level Estimated
Tue 05:12:51 PM 41.6353 -76.0472 309° West 317 365 11,000  Level New York Center
Tue 05:13:51 PM 41.6658 -76.1550 291° West 333 383 12,300 1,200 Climbing New York Center
Tue 05:14:51 PM 41.6981 -76.2714 290° West 340 391 13,400 1,150 Climbing New York Center
Tue 05:15:51 PM 41.7333 -76.4050 290° West 340 391 14,600 1,100 Climbing New York Center
Tue 05:16:51 PM 41.7692 -76.5306 291° West 354 407 15,600 1,050 Climbing New York Center
Tue 05:17:51 PM 41.8047 -76.6533 291° West 354 407 16,700 1,050 Climbing New York Center
Tue 05:18:51 PM 41.8381 -76.7786 290° West 354 407 17,700 983 Climbing New York Center
Tue 05:20:48 PM 41.9092 -77.0256 291° West 368 423 19,600 983 Climbing Cleveland Center
Tue 05:21:48 PM 41.9422 -77.1519 289° West 368 423 20,600 950 Climbing Cleveland Center
Tue 05:22:48 PM 41.9772 -77.2814 290° West 363 418 21,500 950 Climbing Cleveland Center
Tue 05:23:48 PM 42.0122 -77.4111 290° West 363 418 22,500 1,000 Climbing Cleveland Center
Tue 05:24:48 PM 42.0447 -77.5353 289° West 363 418 23,500 1,250 Climbing Cleveland Center
Tue 05:25:48 PM 42.0772 -77.6625 289° West 363 418 25,000 1,500 Climbing Cleveland Center
Tue 05:26:48 PM 42.1114 -77.7842 291° West 358 412 26,500 1,550 Climbing Cleveland Center
Tue 05:27:48 PM 42.1433 -77.9003 290° West 348 400 28,100 1,500 Climbing Cleveland Center
Tue 05:28:48 PM 42.1711 -78.0169 288° West 337 388 29,500 1,200 Climbing Cleveland Center
Tue 05:29:48 PM 42.2028 -78.1333 290° West 337 388 30,500 3,250 Climbing Cleveland Center
Tue 05:30:48 PM 42.2325 -78.2528 289° West 337 388 36,000 1,000 Climbing Cleveland Center
Tue 05:31:48 PM 42.2661 -78.3722 291° West 343 395 32,500 -1,200 Descending Cleveland Center
Tue 05:32:48 PM 42.2956 -78.5003 287° West 343 395 33,600 1,100 Climbing Cleveland Center
Tue 05:33:48 PM 42.3289 -78.6200 291° West 343 395 34,700 1,100 Climbing Cleveland Center
Tue 05:34:48 PM 42.3581 -78.7428 288° West 343 395 35,800 650 Climbing Cleveland Center
Tue 05:35:48 PM 42.3892 -78.8656 289° West 343 395 36,000 100 Climbing Cleveland Center
Tue 05:36:48 PM 42.4222 -78.9969 289° West 354 407 36,000  Level Cleveland Center
Tue 05:37:48 PM 42.4575 -79.1367 289° West 372 428 36,000  Level Cleveland Center
Tue 05:38:48 PM 42.4861 -79.2628 287° West 384 442 36,000  Level Cleveland Center
Tue 05:39:48 PM 42.5022 -79.4117 278° West 398 458 36,000  Level Cleveland Center
Tue 05:40:48 PM 42.5036 -79.5636 271° West 409 471 36,000  Level Cleveland Center
Tue 05:41:48 PM 42.5153 -79.7183 276° West 409 471 36,000  Level Cleveland Center
Tue 05:42:48 PM 42.5206 -79.8706 273° West 409 471 36,000  Level Cleveland Center
Tue 05:43:48 PM 42.5278 -80.0422 273° West 409 471 36,000  Level Cleveland Center
Tue 05:44:48 PM 42.5325 -80.1972 272° West 409 471 36,000  Level Cleveland Center
Tue 05:45:48 PM 42.5392 -80.3494 273° West 416 479 36,000  Level Cleveland Center
Tue 05:46:48 PM 42.5456 -80.5072 273° West 416 479 36,000  Level Cleveland Center
Tue 05:47:48 PM 42.5519 -80.6592 273° West 416 479 36,000  Level Cleveland Center
Tue 05:48:48 PM 42.5581 -80.8114 273° West 416 479 36,000  Level Cleveland Center
Tue 05:49:48 PM 42.5639 -80.9553 273° West 416 479 36,000  Level Cleveland Center
Tue 05:50:48 PM 42.5675 -81.1075 272° West 416 479 36,000  Level Cleveland Center
Tue 05:51:48 PM 42.5750 -81.2628 274° West 407 468 36,000  Level Cleveland Center
Tue 05:52:48 PM 42.5800 -81.4178 273° West 412 474 36,000  Level Cleveland Center
Tue 05:53:48 PM 42.6039 -81.5647 283° West 412 474 36,000  Level Cleveland Center
Tue 05:54:48 PM 42.6297 -81.7175 283° West 412 474 36,000  Level Cleveland Center
Tue 05:55:48 PM 42.6553 -81.8647 283° West 412 474 36,000  Level Cleveland Center
Tue 05:56:48 PM 42.6806 -82.0150 283° West 412 474 36,000  Level Cleveland Center
Tue 05:57:48 PM 42.7078 -82.1656 284° West 412 474 36,000  Level Cleveland Center
Tue 05:58:48 PM 42.7328 -82.3158 283° West 412 474 36,000  Level Cleveland Center
Tue 05:59:48 PM 42.7556 -82.4581 282° West 407 468 36,000  Level Cleveland Center
Tue 06:00:48 PM 42.7822 -82.6031 284° West 402 463 36,000  Level Cleveland Center
Tue 06:01:48 PM 42.8489 -82.7156 309° West 382 440 36,000  Level Cleveland Center
Tue 06:02:48 PM 42.9242 -82.8175 315° West 376 433 36,000 -200 Level Cleveland Center
Tue 06:03:48 PM 42.9825 -82.9272 306° West 376 433 35,600 -600 Descending Cleveland Center
Tue 06:04:48 PM 42.9878 -83.0694 273° West 358 412 34,800 -800 Descending Cleveland Center
Tue 06:05:48 PM 42.9822 -83.2197 267° West 378 435 34,000 -700 Descending Cleveland Center
Tue 06:06:48 PM 42.9828 -83.3786 270° West 383 441 33,400 -750 Descending Cleveland Center
Tue 06:07:48 PM 42.9753 -83.5117 266° West 383 441 32,500 -700 Descending Cleveland Center
Tue 06:08:48 PM 42.9672 -83.6617 266° West 383 441 32,000 -250 Descending Cleveland Center
Tue 06:09:48 PM 42.9592 -83.8061 266° West 388 447 32,000  Level Cleveland Center
Tue 06:11:27 PM 42.9378 -84.0367 263° West 379 436 32,000  Level Chicago Center
Tue 06:12:29 PM 42.9239 -84.1806 263° West 381 438 32,000  Level Chicago Center
Tue 06:13:31 PM 42.9072 -84.3525 263° West 383 441 32,000  Level Chicago Center
Tue 06:14:34 PM 42.8922 -84.4953 262° West 382 440 32,000  Level Chicago Center
Tue 06:15:36 PM 42.8786 -84.6397 263° West 383 441 32,000  Level Chicago Center
Tue 06:16:38 PM 42.8639 -84.7828 262° West 383 441 32,000  Level Chicago Center
Tue 06:17:40 PM 42.8483 -84.9275 262° West 386 444 32,000  Level Chicago Center
Tue 06:18:42 PM 42.8325 -85.0714 262° West 386 444 32,000 -290 Level Chicago Center
Tue 06:19:44 PM 42.8142 -85.2469 262° West 389 448 31,400 -1,258 Descending Chicago Center
Tue 06:20:46 PM 42.7972 -85.3947 261° West 393 452 29,400 -1,887 Descending Chicago Center
Tue 06:21:48 PM 42.7786 -85.5422 260° West 395 455 27,500 -1,790 Descending Chicago Center
Tue 06:22:50 PM 42.7517 -85.6856 256° West 391 450 25,700 -1,790 Descending Chicago Center
Tue 06:23:52 PM 42.7267 -85.8267 256° West 384 442 23,800 -1,742 Descending Chicago Center
Tue 06:24:54 PM 42.7014 -85.9656 256° West 378 435 22,100 -1,344 Descending Chicago Center
Tue 06:25:57 PM 42.6761 -86.1022 256° West 372 428 21,000 -1,008 Descending Chicago Center
Tue 06:26:59 PM 42.6517 -86.2386 256° West 370 426 20,000 -726 Descending Chicago Center
Tue 06:28:01 PM 42.6211 -86.4039 256° West 374 430 19,500 -1,210 Descending Chicago Center
Tue 06:29:03 PM 42.5953 -86.5392 256° West 371 427 17,500 -1,984 Descending Chicago Center
Tue 06:30:05 PM 42.5714 -86.6711 256° West 362 417 15,400 -1,935 Descending Chicago Center
Tue 06:31:07 PM 42.5406 -86.7992 252° West 359 413 13,500 -1,935 Descending Chicago Center
Tue 06:32:09 PM 42.5075 -86.9228 250° West 350 403 11,400 -1,694 Descending Chicago Center
Tue 06:33:11 PM 42.4750 -87.0389 249° West 333 383 10,000 -726 Descending Chicago Center
Tue 06:34:13 PM 42.4392 -87.1731 250° West 316 364 9,900 -484 Descending Chicago Center
Tue 06:35:15 PM 42.3833 -87.2194 212° Southwest 279 321 9,000 -435 Descending Chicago Center
Tue 06:36:17 PM 42.3106 -87.2183 179° South 265 305 9,000  Level Chicago Center
Tue 06:37:19 PM 42.2283 -87.2175 180° South 262 302 9,000 -242 Level Chicago Center
Tue 06:38:21 PM 42.1550 -87.2175 180° South 264 304 8,500 -672 Descending Chicago Center
Tue 06:39:24 PM 42.0828 -87.2172 180° South 261 300 7,600 -768 Descending Chicago Center
Tue 06:40:26 PM 42.0281 -87.1761 151° Southeast 249 287 6,900 -290 Descending Chicago Center
Tue 06:41:28 PM 41.9792 -87.1719 176° South 209 241 7,000 48 Climbing Chicago Center
Tue 06:42:30 PM 41.9836 -87.2447 275° West 177 204 7,000  Level Chicago Center
Tue 06:43:32 PM 41.9831 -87.3058 269° West 165 190 7,000  Level Chicago Center
Tue 06:44:34 PM 41.9831 -87.3661 270° West 164 189 7,000  Level Chicago Center
Tue 06:45:36 PM 41.9836 -87.4253 271° West 161 185 7,000 -242 Level Chicago Center
Tue 06:46:38 PM 41.9831 -87.4844 269° West 160 184 6,500 -871 Descending Chicago Center
Tue 06:47:40 PM 41.9833 -87.5619 270° West 174 200 5,200 -1,065 Descending Chicago Center
Tue 06:48:42 PM 41.9839 -87.6244 271° West 172 198 4,300 -816 Descending Chicago Center
Tue 06:49:45 PM 41.9833 -87.6833 269° West 167 192 3,500 -768 Descending Chicago Center
Tue 06:50:47 PM 41.9836 -87.7442 270° West 165 190 2,700 -774 Descending Chicago Center
Tue 06:51:49 PM 41.9839 -87.8022 270° West 162 186 1,900 -726 Descending Chicago Center
Tue 06:52:51 PM 41.9844 -87.8558 271° West 140 161 1,200 -677 Descending Chicago Center

Login

Don't have an account? Register now (free) for customized features, flight alerts, and more!